Terminal Aerodrome Forecast
Issued by NWS Flagstaff, AZ

Home | Current Version | Previous Version | Text Only | Print | Product List | Glossary On
Versions: 1 2 3 4 5 6 7 8 9 10 11 12 13 14 15 16 17
765
FTUS45 KFGZ 222343 CCA
TAFINW
TAF COR
KINW 222343Z 2300/2324 27020G30KT P6SM SCT150
     FM230200 25015KT P6SM SKC
     FM231500 33005KT P6SM FEW150=

USA.gov is the U.S. government's official web portal to all federal, state and local government web resources and services.